Time;durP1;ratioP1;P1;durP2;ratioP2;P2;SDS_P1;SDS_P2;PMS_P1;PMS_P2;Temp;Humidity;BMP_temperature;BMP_pressure;BME280_temperature;BME280_humidity;BME280_pressure;Samples;Min_cycle;Max_cycle;Signal;HPM_P1;HPM_P2
2023/01/24 00:01:02;;;;;;;17.13;14.23;;;5.60;96.40;;;;;;5016140;28;20483;-56
2023/01/24 00:03:32;;;;;;;15.73;12.10;;;5.60;96.50;;;;;;5016146;28;20474;-56
2023/01/24 00:05:58;;;;;;;16.37;14.40;;;5.60;96.50;;;;;;5015882;28;20462;-54
2023/01/24 00:08:25;;;;;;;15.27;12.30;;;5.60;96.60;;;;;;5016299;28;20430;-56
2023/01/24 00:10:59;;;;;;;19.13;12.40;;;5.60;96.60;;;;;;5016164;28;20525;-56
2023/01/24 00:13:26;;;;;;;14.77;12.53;;;5.60;96.60;;;;;;5016224;28;20526;-56
2023/01/24 00:16:03;;;;;;;17.20;13.40;;;5.60;96.50;;;;;;5016740;28;20459;-56
2023/01/24 00:18:32;;;;;;;17.37;14.60;;;5.70;96.60;;;;;;5016402;28;20490;-56
2023/01/24 00:21:04;;;;;;;13.90;11.93;;;5.70;96.60;;;;;;5016858;28;20451;-56
2023/01/24 00:23:31;;;;;;;15.47;12.33;;;5.60;96.60;;;;;;5017087;28;20554;-56
2023/01/24 00:25:57;;;;;;;17.33;13.73;;;5.60;96.60;;;;;;5016150;28;20454;-55
2023/01/24 00:28:24;;;;;;;20.23;15.43;;;5.60;96.50;;;;;;5015676;28;20458;-56
2023/01/24 00:30:51;;;;;;;20.13;14.20;;;5.60;96.60;;;;;;5015634;28;20456;-55
2023/01/24 00:33:17;;;;;;;18.10;13.67;;;5.60;96.70;;;;;;5015402;28;20494;-55
2023/01/24 00:35:46;;;;;;;19.30;14.63;;;5.60;96.70;;;;;;5015488;28;20459;-56
2023/01/24 00:38:12;;;;;;;17.50;14.60;;;5.60;96.70;;;;;;5014510;28;20456;-56
2023/01/24 00:40:39;;;;;;;16.67;14.00;;;5.60;96.70;;;;;;5014317;28;20466;-56
2023/01/24 00:43:06;;;;;;;16.67;13.80;;;5.50;96.50;;;;;;5015094;28;20482;-56
2023/01/24 00:45:36;;;;;;;17.10;13.83;;;5.50;96.60;;;;;;5014939;28;20966;-56
2023/01/24 00:48:03;;;;;;;17.43;13.87;;;5.50;96.70;;;;;;5014908;28;20450;-56
2023/01/24 00:50:29;;;;;;;16.37;13.20;;;5.50;96.80;;;;;;5015120;28;20451;-56
2023/01/24 00:52:58;;;;;;;17.83;14.93;;;5.60;96.90;;;;;;5015028;28;20479;-55
2023/01/24 00:55:24;;;;;;;20.00;12.93;;;5.60;97.40;;;;;;5014693;28;21132;-55
2023/01/24 00:57:51;;;;;;;16.73;13.50;;;5.60;97.10;;;;;;5014993;28;20462;-56
2023/01/24 01:00:18;;;;;;;17.87;14.13;;;5.60;97.00;;;;;;5014925;28;20458;-55
2023/01/24 01:02:45;;;;;;;19.50;16.00;;;5.60;97.10;;;;;;5014797;28;20475;-56
2023/01/24 01:05:12;;;;;;;18.47;14.40;;;5.50;97.00;;;;;;5014866;28;20458;-55
2023/01/24 01:07:39;;;;;;;22.00;14.87;;;5.60;97.00;;;;;;5014865;28;20458;-56
2023/01/24 01:10:08;;;;;;;18.80;15.20;;;5.60;97.00;;;;;;5014551;28;20950;-57
2023/01/24 01:12:34;;;;;;;18.17;13.60;;;5.60;97.10;;;;;;5014927;28;20510;-57
2023/01/24 01:15:01;;;;;;;16.40;13.23;;;5.60;96.90;;;;;;5014690;28;20494;-57
2023/01/24 01:17:28;;;;;;;18.97;15.30;;;5.60;96.90;;;;;;5014632;28;20455;-56
2023/01/24 01:19:55;;;;;;;17.00;14.70;;;5.50;96.90;;;;;;5014578;28;20505;-56
2023/01/24 01:22:22;;;;;;;16.70;13.50;;;5.60;97.00;;;;;;5013387;28;20480;-56
2023/01/24 01:24:49;;;;;;;16.73;12.50;;;5.50;96.90;;;;;;5014218;28;20940;-56
2023/01/24 01:27:17;;;;;;;17.53;13.00;;;5.60;97.00;;;;;;5014453;28;20466;-56
2023/01/24 01:29:44;;;;;;;16.47;13.30;;;5.50;96.90;;;;;;5014466;28;20452;-56
2023/01/24 01:32:11;;;;;;;15.20;12.33;;;5.50;96.90;;;;;;5014405;28;20481;-56
2023/01/24 01:34:37;;;;;;;15.77;12.10;;;5.50;96.90;;;;;;5014077;28;20479;-57
2023/01/24 01:37:04;;;;;;;15.97;12.93;;;5.50;96.90;;;;;;5014120;28;20824;-56
2023/01/24 01:39:31;;;;;;;17.50;13.90;;;5.50;97.00;;;;;;5014233;28;20433;-55
2023/01/24 01:41:57;;;;;;;16.80;12.87;;;5.60;97.00;;;;;;5014353;28;20471;-56
2023/01/24 01:44:43;;;;;;;17.50;13.70;;;5.60;97.00;;;;;;5014071;28;20954;-55
2023/01/24 01:47:19;;;;;;;14.93;12.60;;;5.60;97.00;;;;;;5014261;28;20458;-56
2023/01/24 01:49:51;;;;;;;17.33;13.37;;;5.50;97.00;;;;;;5014142;28;20469;-56
2023/01/24 01:52:19;;;;;;;13.80;11.93;;;5.50;97.00;;;;;;5013813;28;20471;-57
2023/01/24 01:54:47;;;;;;;16.17;12.93;;;5.60;97.00;;;;;;5013908;28;20478;-56
2023/01/24 01:57:17;;;;;;;14.50;12.43;;;5.60;97.10;;;;;;5014166;28;20943;-57
2023/01/24 01:59:50;;;;;;;16.23;12.93;;;5.50;97.10;;;;;;5014074;28;20443;-56
2023/01/24 02:02:19;;;;;;;18.23;13.77;;;5.60;97.20;;;;;;5014100;28;20478;-56
2023/01/24 02:04:50;;;;;;;14.77;12.30;;;5.60;97.20;;;;;;5014027;28;20471;-56
2023/01/24 02:07:21;;;;;;;14.20;12.10;;;5.60;97.10;;;;;;5014113;28;20431;-56
2023/01/24 02:09:51;;;;;;;16.03;12.57;;;5.60;97.00;;;;;;5013885;28;20432;-56
2023/01/24 02:12:21;;;;;;;13.83;11.53;;;5.50;97.00;;;;;;5014341;28;20481;-56
2023/01/24 02:17:37;;;;;;;12.00;10.73;;;5.50;97.00;;;;;;5013737;28;20922;-56
2023/01/24 02:20:21;;;;;;;14.43;11.50;;;5.50;97.10;;;;;;5013993;28;20455;-56
2023/01/24 02:22:59;;;;;;;15.47;12.23;;;5.50;97.10;;;;;;5013578;28;20479;-55
2023/01/24 02:25:31;;;;;;;13.90;11.97;;;5.50;97.10;;;;;;5013848;28;20797;-56
2023/01/24 02:28:01;;;;;;;13.47;10.90;;;5.50;97.10;;;;;;5013833;28;20456;-56
2023/01/24 02:30:27;;;;;;;15.90;12.80;;;5.50;97.10;;;;;;5013867;28;20451;-56
2023/01/24 02:32:54;;;;;;;14.20;12.37;;;5.50;97.10;;;;;;5013805;28;20475;-55
2023/01/24 02:35:26;;;;;;;15.37;12.13;;;5.50;97.10;;;;;;5013476;28;20490;-56
2023/01/24 02:37:55;;;;;;;15.63;12.30;;;5.50;97.10;;;;;;5033452;23;20505;-56
2023/01/24 02:40:23;;;;;;;15.53;12.07;;;5.50;97.10;;;;;;5033235;28;20454;-56
2023/01/24 02:42:50;;;;;;;13.27;11.87;;;5.50;97.10;;;;;;5033063;28;20478;-56
2023/01/24 02:45:23;;;;;;;15.20;12.50;;;5.50;97.10;;;;;;5033196;28;20438;-56
2023/01/24 02:47:52;;;;;;;14.00;10.67;;;5.50;97.00;;;;;;5033240;28;20434;-56
2023/01/24 02:50:22;;;;;;;11.90;10.60;;;5.50;97.00;;;;;;5033314;28;20441;-56
2023/01/24 02:58:05;;;;;;;13.30;10.73;;;5.50;96.90;;;;;;5033259;28;20528;-56
2023/01/24 02:58:20;;;;;;;12.33;9.83;;;5.50;96.80;;;;;;5032922;28;20475;-55
2023/01/24 03:00:49;;;;;;;11.97;9.67;;;5.50;96.50;;;;;;5033087;28;20630;-56
2023/01/24 03:03:16;;;;;;;11.57;9.80;;;5.50;96.60;;;;;;5032987;28;20477;-56
2023/01/24 03:05:56;;;;;;;10.67;9.00;;;5.40;96.40;;;;;;5036452;28;20449;-55
2023/01/24 03:08:24;;;;;;;10.73;9.07;;;5.40;96.40;;;;;;5037746;28;20504;-56
2023/01/24 03:10:50;;;;;;;12.80;10.83;;;5.50;96.60;;;;;;5036921;28;20517;-57
2023/01/24 03:35:14;;;;;;;11.70;9.50;;;5.40;96.20;;;;;;5036115;28;20520;-55
2023/01/24 03:40:24;;;;;;;11.50;10.30;;;5.40;96.40;;;;;;5036335;28;20405;-56
2023/01/24 03:42:51;;;;;;;15.60;10.47;;;5.40;96.40;;;;;;5036070;28;20485;-56
2023/01/24 03:45:19;;;;;;;12.80;10.90;;;5.40;96.40;;;;;;5036235;28;20454;-57
2023/01/24 03:48:04;;;;;;;11.67;9.77;;;5.40;96.50;;;;;;5036082;28;20456;-56
2023/01/24 03:53:19;;;;;;;13.40;10.50;;;5.40;96.50;;;;;;5035770;28;20449;-55
2023/01/24 03:55:47;;;;;;;11.20;10.00;;;5.40;96.50;;;;;;5035684;28;21013;-56
2023/01/24 03:58:15;;;;;;;11.20;10.00;;;5.40;96.50;;;;;;5035981;28;20442;-56
2023/01/24 04:00:41;;;;;;;10.33;9.33;;;5.40;96.50;;;;;;5035862;28;20437;-56
2023/01/24 04:03:09;;;;;;;12.67;10.37;;;5.40;96.60;;;;;;5034530;28;20478;-56
2023/01/24 04:05:37;;;;;;;13.90;11.00;;;5.50;96.60;;;;;;5035435;28;20445;-56
2023/01/24 04:08:04;;;;;;;12.57;10.13;;;5.50;96.60;;;;;;5035630;28;20461;-56
2023/01/24 04:10:31;;;;;;;13.80;11.33;;;5.40;96.60;;;;;;5035629;28;20504;-55
2023/01/24 04:12:58;;;;;;;12.20;10.10;;;5.50;96.60;;;;;;5036006;28;20489;-55
2023/01/24 04:15:28;;;;;;;12.20;10.37;;;5.50;96.50;;;;;;5035370;28;20489;-56
2023/01/24 04:17:56;;;;;;;11.27;9.50;;;5.50;96.50;;;;;;5035251;28;20864;-56
2023/01/24 04:20:25;;;;;;;12.23;9.83;;;5.50;96.50;;;;;;5035564;28;20907;-56
2023/01/24 04:22:51;;;;;;;10.73;8.83;;;5.50;96.40;;;;;;5035620;28;20475;-56
2023/01/24 04:25:18;;;;;;;12.30;9.80;;;5.50;96.50;;;;;;5035419;28;20445;-56
2023/01/24 04:27:45;;;;;;;10.33;9.20;;;5.40;96.40;;;;;;5035523;28;20468;-56
2023/01/24 04:30:14;;;;;;;11.50;8.50;;;5.40;96.30;;;;;;5035291;28;20442;-56
2023/01/24 04:32:41;;;;;;;10.80;9.17;;;5.40;96.30;;;;;;5034914;28;20993;-56
2023/01/24 04:35:10;;;;;;;11.13;8.87;;;5.40;96.30;;;;;;5035401;28;20467;-56
2023/01/24 04:37:39;;;;;;;11.40;9.87;;;5.40;96.30;;;;;;5034786;28;20461;-56
2023/01/24 04:40:07;;;;;;;10.63;9.27;;;5.40;96.30;;;;;;5035189;28;20807;-56
2023/01/24 04:42:34;;;;;;;11.10;9.10;;;5.50;96.40;;;;;;5034918;28;20835;-56
2023/01/24 04:45:01;;;;;;;13.00;10.67;;;5.50;96.40;;;;;;5034722;28;20427;-57
2023/01/24 04:47:28;;;;;;;14.30;10.00;;;5.40;96.30;;;;;;5034996;28;20450;-57
2023/01/24 04:49:54;;;;;;;10.70;9.60;;;5.50;96.30;;;;;;5034908;28;20508;-57
2023/01/24 04:52:21;;;;;;;11.20;9.17;;;5.50;96.40;;;;;;5034851;28;20476;-56
2023/01/24 04:54:51;;;;;;;11.70;10.20;;;5.50;96.40;;;;;;5034707;28;20996;-57
2023/01/24 04:57:18;;;;;;;12.10;9.77;;;5.40;96.30;;;;;;5034531;28;20946;-57
2023/01/24 04:59:45;;;;;;;11.30;9.40;;;5.40;96.30;;;;;;5034716;28;20456;-56
2023/01/24 05:02:12;;;;;;;10.97;8.93;;;5.40;96.30;;;;;;5034704;28;20473;-57
2023/01/24 05:04:39;;;;;;;11.70;9.80;;;5.40;96.30;;;;;;5034756;28;20511;-57
2023/01/24 05:07:06;;;;;;;11.67;10.47;;;5.40;96.30;;;;;;5034605;28;20451;-57
2023/01/24 05:09:32;;;;;;;10.80;8.90;;;5.40;96.10;;;;;;5034524;28;20453;-56
2023/01/24 05:12:01;;;;;;;11.03;8.63;;;5.40;96.10;;;;;;5034559;28;20487;-57
2023/01/24 05:14:28;;;;;;;12.83;10.07;;;5.50;96.10;;;;;;5022862;28;20459;-56
2023/01/24 05:16:54;;;;;;;13.03;10.57;;;5.40;96.10;;;;;;5014767;28;21008;-57
2023/01/24 05:19:21;;;;;;;11.37;9.27;;;5.40;96.20;;;;;;5014682;28;20858;-55
2023/01/24 05:21:47;;;;;;;11.23;10.07;;;5.40;96.10;;;;;;5014574;28;20450;-56
2023/01/24 05:24:14;;;;;;;9.70;8.67;;;5.40;96.20;;;;;;5014632;28;20450;-57
2023/01/24 05:26:41;;;;;;;12.50;9.83;;;5.40;96.20;;;;;;5014053;28;20462;-56
2023/01/24 05:29:11;;;;;;;11.83;9.40;;;5.40;96.20;;;;;;5017329;28;20440;-56
2023/01/24 05:31:38;;;;;;;11.70;9.20;;;5.40;96.20;;;;;;5020363;28;20459;-56
2023/01/24 05:34:05;;;;;;;11.07;9.87;;;5.40;96.20;;;;;;5016116;28;20471;-56
2023/01/24 05:36:32;;;;;;;13.67;10.30;;;5.40;96.20;;;;;;5014512;28;20483;-56
2023/01/24 05:38:59;;;;;;;10.97;9.47;;;5.40;96.10;;;;;;5014117;28;20465;-56
2023/01/24 05:41:26;;;;;;;14.50;9.70;;;5.40;96.10;;;;;;5014300;28;20452;-56
2023/01/24 05:43:53;;;;;;;11.10;9.57;;;5.40;96.10;;;;;;5014597;28;20475;-56
2023/01/24 05:46:22;;;;;;;10.20;8.87;;;5.40;96.10;;;;;;5014009;28;20437;-56
2023/01/24 05:48:49;;;;;;;12.80;8.00;;;5.40;96.10;;;;;;5014229;28;20442;-56
2023/01/24 05:51:19;;;;;;;15.07;10.17;;;5.40;96.10;;;;;;5014211;28;20451;-55
2023/01/24 05:53:45;;;;;;;12.40;9.37;;;5.40;96.10;;;;;;5013817;28;20467;-55
2023/01/24 05:56:14;;;;;;;11.70;9.47;;;5.30;96.10;;;;;;5014139;28;20500;-57
2023/01/24 05:58:41;;;;;;;8.87;7.97;;;5.40;96.10;;;;;;5014149;28;20466;-56
2023/01/24 06:01:09;;;;;;;9.80;8.73;;;5.30;96.10;;;;;;5014352;28;20432;-56
2023/01/24 06:03:38;;;;;;;10.50;8.90;;;5.40;96.20;;;;;;5013835;28;20479;-56
2023/01/24 06:06:05;;;;;;;11.80;9.77;;;5.40;96.10;;;;;;5013963;28;20798;-56
2023/01/24 06:08:32;;;;;;;11.93;8.60;;;5.40;96.20;;;;;;5013720;28;20941;-56
2023/01/24 06:11:03;;;;;;;10.30;8.00;;;5.30;96.00;;;;;;5013924;28;20447;-57
2023/01/24 06:13:30;;;;;;;10.97;9.77;;;5.40;95.90;;;;;;5013694;28;20509;-56
2023/01/24 06:16:02;;;;;;;10.90;8.67;;;5.30;95.80;;;;;;5013827;28;20471;-56
2023/01/24 06:18:29;;;;;;;10.50;9.40;;;5.30;95.80;;;;;;5013919;28;20455;-57
2023/01/24 06:20:58;;;;;;;14.93;9.50;;;5.30;95.90;;;;;;5013820;28;20477;-57
2023/01/24 06:23:27;;;;;;;10.40;9.03;;;5.30;95.90;;;;;;5013473;28;20988;-56
2023/01/24 06:25:54;;;;;;;10.57;8.87;;;5.30;96.00;;;;;;5013424;28;20454;-56
2023/01/24 06:28:21;;;;;;;10.67;8.60;;;5.40;96.00;;;;;;5013947;28;20443;-56
2023/01/24 06:31:00;;;;;;;9.20;8.20;;;5.30;95.90;;;;;;5013692;28;20442;-56
2023/01/24 06:33:36;;;;;;;11.50;10.30;;;5.30;95.90;;;;;;5013570;28;20477;-56
2023/01/24 06:36:27;;;;;;;11.30;9.23;;;5.30;95.80;;;;;;5013760;28;20475;-56
2023/01/24 06:38:54;;;;;;;8.97;8.03;;;5.30;95.70;;;;;;5013823;28;20994;-56
2023/01/24 06:41:22;;;;;;;12.00;8.80;;;5.30;95.80;;;;;;5017625;28;20458;-55
2023/01/24 06:43:49;;;;;;;11.73;9.17;;;5.30;95.90;;;;;;5017305;28;20997;-55
2023/01/24 06:46:15;;;;;;;10.60;8.30;;;5.30;95.90;;;;;;5018007;28;20530;-55
2023/01/24 06:48:46;;;;;;;11.17;8.60;;;5.30;96.00;;;;;;5018554;28;20798;-56
2023/01/24 06:51:15;;;;;;;10.03;8.97;;;5.30;96.30;;;;;;5018442;28;20537;-55
2023/01/24 06:53:41;;;;;;;10.60;9.13;;;5.30;95.90;;;;;;5017949;28;20520;-56
2023/01/24 06:56:09;;;;;;;9.30;8.40;;;5.30;95.90;;;;;;5018437;28;20471;-56
2023/01/24 06:58:36;;;;;;;9.97;8.93;;;5.30;95.90;;;;;;5018793;28;20461;-56
2023/01/24 07:01:03;;;;;;;9.77;8.77;;;5.30;95.90;;;;;;5017901;28;20804;-56
2023/01/24 07:03:29;;;;;;;10.77;8.70;;;5.30;95.80;;;;;;5017391;28;20475;-56
2023/01/24 07:05:56;;;;;;;9.77;8.77;;;5.30;95.70;;;;;;5016854;28;20439;-56
2023/01/24 07:08:25;;;;;;;9.40;8.40;;;5.30;95.60;;;;;;5017364;28;20459;-56
2023/01/24 07:10:51;;;;;;;10.03;8.23;;;5.30;95.30;;;;;;5017211;28;20466;-56
2023/01/24 07:13:18;;;;;;;9.50;8.50;;;5.30;95.40;;;;;;5017131;28;20474;-55
2023/01/24 07:15:45;;;;;;;11.43;9.67;;;5.20;95.40;;;;;;5015887;28;20490;-56
2023/01/24 07:18:13;;;;;;;8.77;7.87;;;5.30;95.50;;;;;;5016966;28;20457;-56
2023/01/24 07:20:40;;;;;;;10.23;8.53;;;5.30;95.60;;;;;;5017723;28;20844;-56
2023/01/24 07:23:19;;;;;;;9.07;8.17;;;5.30;95.60;;;;;;5016373;28;20474;-56
2023/01/24 07:25:48;;;;;;;9.37;8.40;;;5.30;95.50;;;;;;5016780;28;20445;-56
2023/01/24 07:28:16;;;;;;;9.90;8.40;;;5.30;95.40;;;;;;5016583;28;20474;-55
2023/01/24 07:30:44;;;;;;;9.13;8.10;;;5.20;95.40;;;;;;5016843;28;20458;-56
2023/01/24 07:33:11;;;;;;;9.90;8.50;;;5.20;95.40;;;;;;5016444;28;20474;-55
2023/01/24 07:35:38;;;;;;;9.60;8.23;;;5.20;95.40;;;;;;5016420;28;20490;-56
2023/01/24 07:38:05;;;;;;;9.23;8.20;;;5.20;95.40;;;;;;5016567;28;20488;-56
2023/01/24 07:40:31;;;;;;;10.97;9.30;;;5.20;95.40;;;;;;5016164;28;20458;-55
2023/01/24 07:43:01;;;;;;;9.27;8.37;;;5.20;95.40;;;;;;5016576;28;20474;-55
2023/01/24 07:45:28;;;;;;;12.23;8.40;;;5.30;95.50;;;;;;5016495;28;20451;-56
2023/01/24 07:47:56;;;;;;;10.47;8.33;;;5.30;95.40;;;;;;5024678;28;20481;-55
2023/01/24 07:50:23;;;;;;;10.20;7.93;;;5.30;95.40;;;;;;5034038;28;20551;-55
2023/01/24 07:52:52;;;;;;;9.43;8.43;;;5.30;95.40;;;;;;5035883;28;21001;-56
2023/01/24 07:55:19;;;;;;;12.77;8.80;;;5.30;95.30;;;;;;5035842;28;20569;-55
2023/01/24 07:57:45;;;;;;;10.63;8.83;;;5.30;95.30;;;;;;5035583;28;20981;-55
2023/01/24 08:00:16;;;;;;;9.23;8.17;;;5.30;95.30;;;;;;5035935;28;20462;-56
2023/01/24 08:02:43;;;;;;;12.50;9.53;;;5.30;95.30;;;;;;5035912;28;20474;-56
2023/01/24 08:05:11;;;;;;;10.00;8.90;;;5.30;95.50;;;;;;5035501;28;20507;-56
2023/01/24 08:07:38;;;;;;;9.60;8.43;;;5.40;95.20;;;;;;5035677;28;20450;-55
2023/01/24 08:10:06;;;;;;;11.37;9.83;;;5.40;95.20;;;;;;5035754;28;20442;-56
2023/01/24 08:12:32;;;;;;;14.50;9.60;;;5.40;95.20;;;;;;5035049;28;21014;-55
2023/01/24 08:14:59;;;;;;;10.37;8.87;;;5.40;95.30;;;;;;5020369;28;20471;-55
2023/01/24 08:17:27;;;;;;;10.53;9.43;;;5.40;95.30;;;;;;5015464;28;20844;-56
2023/01/24 08:19:54;;;;;;;11.63;9.63;;;5.40;95.30;;;;;;5016406;28;20430;-56
2023/01/24 08:22:21;;;;;;;10.67;8.40;;;5.50;95.30;;;;;;5014347;28;20478;-54
2023/01/24 08:24:47;;;;;;;10.67;8.63;;;5.50;95.30;;;;;;5015714;28;20434;-56
2023/01/24 08:27:14;;;;;;;11.13;9.50;;;5.50;95.30;;;;;;5015744;28;20431;-55
2023/01/24 08:29:41;;;;;;;10.40;8.90;;;5.50;95.30;;;;;;5016124;28;20449;-56
2023/01/24 08:32:08;;;;;;;11.63;10.20;;;5.50;95.10;;;;;;5015409;28;20475;-55
2023/01/24 08:34:37;;;;;;;10.17;8.53;;;5.50;95.10;;;;;;5015548;28;20434;-56
2023/01/24 08:37:03;;;;;;;10.40;9.00;;;5.60;95.00;;;;;;5015351;28;20490;-56
2023/01/24 08:39:30;;;;;;;12.43;10.13;;;5.60;94.90;;;;;;5015131;28;20942;-56
2023/01/24 08:41:57;;;;;;;11.07;8.50;;;5.60;95.00;;;;;;5015467;28;20870;-57
2023/01/24 08:44:23;;;;;;;10.77;9.67;;;5.60;94.90;;;;;;5015425;28;20458;-57
2023/01/24 08:46:50;;;;;;;10.67;8.80;;;5.60;94.80;;;;;;5015193;28;20454;-56
2023/01/24 08:49:17;;;;;;;11.17;8.47;;;5.70;94.70;;;;;;5015818;28;20446;-56
2023/01/24 08:51:46;;;;;;;11.63;9.50;;;5.70;94.70;;;;;;5014879;28;20459;-56
2023/01/24 08:54:13;;;;;;;10.60;8.77;;;5.70;94.70;;;;;;5014993;28;20442;-57
2023/01/24 08:56:40;;;;;;;10.40;9.10;;;5.70;94.60;;;;;;5015010;28;20502;-57
2023/01/24 08:59:07;;;;;;;12.00;9.83;;;5.70;94.60;;;;;;5014775;28;20435;-56
2023/01/24 09:01:34;;;;;;;10.83;8.93;;;5.70;94.60;;;;;;5013924;28;20455;-56
2023/01/24 09:04:02;;;;;;;10.57;9.43;;;5.80;94.70;;;;;;5014930;28;20513;-56
2023/01/24 09:06:29;;;;;;;11.10;8.60;;;5.80;94.50;;;;;;5014933;28;20470;-57
2023/01/24 09:08:57;;;;;;;12.57;9.43;;;5.80;94.20;;;;;;5014874;28;20800;-55
2023/01/24 09:11:24;;;;;;;11.67;9.10;;;5.80;93.90;;;;;;5015037;28;20462;-56
2023/01/24 09:13:50;;;;;;;11.93;10.00;;;5.80;93.90;;;;;;5014697;28;20474;-55
2023/01/24 09:16:18;;;;;;;9.90;8.67;;;5.90;94.00;;;;;;5014648;28;20487;-56
2023/01/24 09:18:44;;;;;;;9.73;8.73;;;5.90;94.10;;;;;;5014987;28;20439;-56
2023/01/24 09:21:11;;;;;;;11.37;9.90;;;5.90;94.10;;;;;;5014624;28;20439;-56
2023/01/24 09:23:38;;;;;;;11.33;9.13;;;6.00;94.10;;;;;;5014635;28;20829;-56
2023/01/24 09:26:06;;;;;;;10.57;8.60;;;6.00;94.10;;;;;;5014609;28;20499;-56
2023/01/24 09:28:33;;;;;;;11.17;9.53;;;6.10;94.10;;;;;;5014616;28;20447;-56
2023/01/24 09:31:00;;;;;;;12.30;9.20;;;6.10;94.00;;;;;;5014776;28;20430;-56
2023/01/24 09:33:27;;;;;;;10.20;8.80;;;6.10;93.90;;;;;;5014351;28;20478;-56
2023/01/24 09:35:56;;;;;;;11.37;9.17;;;6.20;93.80;;;;;;5014356;28;20483;-55
2023/01/24 09:38:24;;;;;;;9.90;8.90;;;6.20;93.70;;;;;;5014035;28;20463;-56
2023/01/24 09:41:01;;;;;;;10.00;8.70;;;6.20;93.70;;;;;;5014323;28;20436;-56
2023/01/24 09:43:43;;;;;;;11.33;9.10;;;6.20;93.80;;;;;;5014121;28;20474;-56
2023/01/24 09:46:17;;;;;;;9.73;8.50;;;6.30;93.40;;;;;;5013280;28;20438;-56
2023/01/24 09:48:45;;;;;;;10.47;9.20;;;6.30;93.30;;;;;;5014214;28;20438;-56
2023/01/24 09:51:16;;;;;;;10.53;9.43;;;6.30;93.20;;;;;;5013898;28;20932;-56
2023/01/24 09:53:46;;;;;;;10.53;9.23;;;6.30;93.10;;;;;;5013904;28;20471;-56
2023/01/24 09:56:26;;;;;;;9.50;8.37;;;6.30;93.20;;;;;;5013681;28;20975;-56
2023/01/24 09:59:09;;;;;;;8.67;7.87;;;6.30;93.20;;;;;;5014075;28;20515;-55
2023/01/24 10:01:38;;;;;;;9.87;8.53;;;6.30;93.10;;;;;;5013659;28;20959;-56
2023/01/24 10:04:05;;;;;;;10.50;9.43;;;6.30;92.90;;;;;;5013568;28;21054;-56
2023/01/24 10:06:33;;;;;;;10.60;9.13;;;6.40;93.00;;;;;;5014178;28;20436;-57
2023/01/24 10:09:08;;;;;;;11.80;8.60;;;6.40;93.00;;;;;;5014105;28;20453;-57
2023/01/24 10:11:46;;;;;;;9.87;8.83;;;6.50;93.00;;;;;;5013815;28;20459;-57
2023/01/24 10:14:33;;;;;;;9.50;8.57;;;6.50;93.00;;;;;;5013448;28;20439;-56
2023/01/24 10:17:32;;;;;;;9.37;8.00;;;6.50;92.90;;;;;;5013741;28;20490;-57
2023/01/24 10:20:34;;;;;;;10.90;9.30;;;6.60;92.90;;;;;;5010445;28;20456;-56
2023/01/24 10:23:06;;;;;;;10.10;8.43;;;6.60;92.70;;;;;;5013177;28;20494;-56
2023/01/24 10:25:46;;;;;;;8.97;8.07;;;6.60;92.60;;;;;;5013978;28;20479;-56
2023/01/24 10:28:20;;;;;;;12.30;8.83;;;6.60;92.50;;;;;;5013769;28;20458;-57
2023/01/24 10:30:54;;;;;;;10.97;9.40;;;6.60;92.50;;;;;;5013667;28;20515;-57
2023/01/24 10:33:21;;;;;;;10.13;9.00;;;6.70;92.50;;;;;;5013562;28;20470;-56
2023/01/24 10:35:57;;;;;;;12.50;9.87;;;6.70;92.30;;;;;;5013528;28;20451;-57
2023/01/24 10:38:25;;;;;;;9.87;8.87;;;6.70;92.30;;;;;;5013523;28;20506;-57
2023/01/24 10:40:55;;;;;;;10.53;8.83;;;6.70;92.30;;;;;;5013163;28;20827;-57
2023/01/24 10:43:25;;;;;;;11.17;8.87;;;6.70;92.30;;;;;;5013218;28;20472;-56
2023/01/24 10:46:07;;;;;;;9.80;8.80;;;6.70;92.30;;;;;;5013474;28;20498;-57
2023/01/24 10:48:42;;;;;;;10.20;9.13;;;6.70;92.20;;;;;;5013517;28;20439;-56
2023/01/24 10:51:15;;;;;;;9.50;8.50;;;6.80;92.20;;;;;;5013480;28;20438;-57
2023/01/24 10:53:42;;;;;;;13.60;10.93;;;6.80;92.40;;;;;;5013126;28;21045;-56
2023/01/24 10:56:09;;;;;;;11.03;9.93;;;6.80;92.00;;;;;;5013442;28;20469;-57
2023/01/24 10:58:37;;;;;;;10.10;9.00;;;6.80;92.00;;;;;;5012268;28;20432;-57
2023/01/24 11:01:09;;;;;;;10.00;8.93;;;6.80;91.90;;;;;;5013369;28;20451;-57
2023/01/24 11:03:41;;;;;;;10.43;9.37;;;6.80;91.80;;;;;;5013312;28;20487;-56
2023/01/24 11:06:25;;;;;;;12.50;10.27;;;6.80;91.80;;;;;;5013405;28;20511;-57
2023/01/24 11:08:56;;;;;;;9.20;8.30;;;6.80;91.70;;;;;;5013370;28;20439;-57
2023/01/24 11:11:26;;;;;;;10.73;9.63;;;6.80;91.60;;;;;;5013211;28;20812;-57
2023/01/24 11:13:57;;;;;;;11.00;9.80;;;6.80;91.60;;;;;;5012590;28;21027;-56
2023/01/24 11:16:31;;;;;;;11.73;10.10;;;6.90;91.70;;;;;;5012867;28;20484;-56
2023/01/24 11:19:00;;;;;;;10.53;9.40;;;6.90;91.70;;;;;;5013721;28;20437;-57
2023/01/24 11:21:29;;;;;;;11.13;9.90;;;6.90;91.60;;;;;;5013169;28;20818;-56
2023/01/24 11:24:13;;;;;;;12.57;10.40;;;6.90;91.50;;;;;;5013172;28;20468;-56
2023/01/24 11:26:53;;;;;;;10.93;9.10;;;6.90;91.60;;;;;;5016386;28;20847;-56
2023/01/24 11:29:20;;;;;;;12.40;10.60;;;7.00;91.70;;;;;;5016825;28;20498;-57
2023/01/24 11:31:53;;;;;;;10.37;9.37;;;6.90;91.60;;;;;;5016640;28;20437;-56
2023/01/24 11:34:44;;;;;;;10.80;9.27;;;7.00;91.40;;;;;;5016966;28;20455;-57
2023/01/24 11:37:36;;;;;;;12.40;11.17;;;7.00;91.40;;;;;;5016364;28;20488;-57
2023/01/24 11:40:19;;;;;;;10.10;9.13;;;7.10;91.40;;;;;;5016587;28;20443;-56
2023/01/24 11:42:55;;;;;;;11.47;10.27;;;7.10;91.40;;;;;;5016522;28;20503;-56
2023/01/24 11:45:40;;;;;;;10.13;9.03;;;7.10;91.30;;;;;;5016599;28;20425;-57
2023/01/24 11:48:16;;;;;;;11.00;9.80;;;7.10;91.20;;;;;;5016782;28;20518;-57
2023/01/24 11:50:57;;;;;;;11.57;10.17;;;7.20;91.00;;;;;;5016548;28;20501;-57
2023/01/24 11:53:44;;;;;;;10.40;9.30;;;7.10;90.90;;;;;;5016444;28;20480;-57
2023/01/24 11:56:20;;;;;;;10.93;9.77;;;7.20;91.00;;;;;;5016467;28;20436;-57
2023/01/24 11:59:22;;;;;;;11.70;9.93;;;7.20;91.10;;;;;;5016581;28;20753;-57
2023/01/24 12:01:56;;;;;;;12.77;9.70;;;7.20;91.10;;;;;;5016061;28;20457;-57
2023/01/24 12:04:49;;;;;;;11.50;10.20;;;7.20;91.00;;;;;;5016440;28;20508;-56
2023/01/24 12:07:23;;;;;;;12.07;10.77;;;7.20;91.00;;;;;;5016203;28;20424;-57
2023/01/24 12:09:57;;;;;;;11.03;9.90;;;7.20;91.00;;;;;;5016158;28;20440;-57
2023/01/24 12:12:36;;;;;;;12.20;10.20;;;7.20;91.00;;;;;;5015872;28;20467;-56
2023/01/24 12:15:25;;;;;;;10.43;9.40;;;7.20;90.90;;;;;;5015961;28;20433;-56
2023/01/24 12:18:03;;;;;;;12.40;10.63;;;7.20;90.90;;;;;;5015847;28;20570;-56
2023/01/24 12:20:53;;;;;;;13.47;11.67;;;7.20;90.80;;;;;;5015903;28;20773;-56
2023/01/24 12:23:22;;;;;;;11.70;10.50;;;7.20;90.90;;;;;;5015551;28;20978;-56
2023/01/24 12:25:51;;;;;;;11.70;10.50;;;7.20;90.90;;;;;;5015511;28;20866;-56
2023/01/24 12:28:28;;;;;;;11.40;9.87;;;7.20;90.90;;;;;;5015654;28;20431;-55
2023/01/24 12:30:58;;;;;;;13.50;11.83;;;7.20;90.80;;;;;;5015837;28;20429;-55
2023/01/24 12:33:31;;;;;;;12.73;11.43;;;7.20;90.80;;;;;;5015579;28;20547;-56
2023/01/24 12:36:03;;;;;;;11.93;10.37;;;7.30;90.80;;;;;;5015571;28;20858;-56
2023/01/24 12:38:36;;;;;;;13.57;11.23;;;7.30;90.80;;;;;;5015179;28;20846;-56
2023/01/24 12:41:13;;;;;;;13.27;11.77;;;7.30;90.80;;;;;;5015636;28;20444;-56
2023/01/24 12:43:51;;;;;;;11.57;9.87;;;7.30;90.70;;;;;;5015346;28;20467;-56
2023/01/24 12:46:29;;;;;;;12.07;10.80;;;7.30;90.70;;;;;;5015546;28;20452;-56
2023/01/24 12:49:03;;;;;;;12.10;10.60;;;7.30;90.70;;;;;;5015483;28;20447;-56
2023/01/24 12:51:35;;;;;;;11.87;10.50;;;7.30;90.70;;;;;;5015400;28;20435;-55
2023/01/24 12:54:10;;;;;;;13.83;12.00;;;7.40;90.70;;;;;;5015236;28;20446;-56
2023/01/24 12:56:47;;;;;;;11.80;10.60;;;7.40;90.60;;;;;;5015236;28;20436;-56
2023/01/24 12:59:16;;;;;;;13.07;11.67;;;7.40;90.60;;;;;;5015294;28;20451;-57
2023/01/24 13:02:09;;;;;;;13.03;10.83;;;7.50;90.60;;;;;;5015661;28;20460;-56
2023/01/24 13:04:48;;;;;;;13.50;10.80;;;7.50;90.50;;;;;;5016081;28;20443;-57
2023/01/24 13:07:28;;;;;;;14.03;11.33;;;7.50;90.40;;;;;;5015509;28;20796;-57
2023/01/24 13:10:04;;;;;;;11.00;9.77;;;7.50;90.30;;;;;;5016264;28;20433;-56
2023/01/24 13:12:32;;;;;;;13.90;11.87;;;7.50;90.30;;;;;;5016766;28;20479;-56
2023/01/24 13:15:03;;;;;;;12.03;10.83;;;7.50;90.30;;;;;;5015286;28;20923;-56
2023/01/24 13:17:55;;;;;;;11.17;10.03;;;7.50;90.20;;;;;;5014755;28;20478;-56
2023/01/24 13:20:38;;;;;;;12.30;10.93;;;7.50;90.10;;;;;;5013561;28;20960;-56
2023/01/24 13:23:41;;;;;;;12.20;10.93;;;7.50;90.00;;;;;;5014838;28;20815;-57
2023/01/24 13:26:31;;;;;;;11.33;10.13;;;7.50;90.00;;;;;;5014892;28;20436;-56
2023/01/24 13:29:27;;;;;;;11.40;10.20;;;7.50;90.00;;;;;;5014589;28;20447;-56
2023/01/24 13:32:03;;;;;;;13.60;11.40;;;7.50;90.00;;;;;;5010906;28;20480;-56
2023/01/24 13:34:32;;;;;;;11.60;10.40;;;7.50;90.00;;;;;;5013093;28;20931;-57